Aéroport Paris-Orly, France

08:38 CEST le 23 octobre 2014 (GMT +0200)
Yerres - FRANCE | Change Station
CLOSE
Current Station
Stations météorologiques personnelles
Location: Yerres, �LE-DE-FRANCE
Altitude: 118 ft
Stations météo à proximité

Alt. 118 ft 48.71 °N, 2.48 °E | Updated 0 second ago

Mostly Cloudy
Nuageux
51.8 ° F
Paraît 51.8 ° F
N
2.6
Vent Variable Vent de SO
Gusts 2.6 mph

Aujourd'hui
Haut(e) -- | Bas -- ° F
--% Risque de précip.
Hier
Haut(e) -- | Bas -- ° F
Precip. -- pouce
8:22 AM 6:46 PM
Lune descendante, 0% visible
Pression 30.27 pouce
Visibilité 6.2 Miles terrestres
Nuages Nuageux 3900 ft
Point de rosée 47 ° F
Humidité 85%
Précipitations 0.00 pouce
Profondeur de la couche neigeuse Non disponible.
UV 0.0 sur 12
Pollen Non disponible.
Qualité de l'air Non disponible.
Flu Activity Non disponible.
METAR LFPO 230630Z 26005KT 9999 BKN039 11/07 Q1025 NOSIG

More Conditions Fewer Conditions

Pression 30.27 pouce
Visibilité 6.2 Miles terrestres
Nuages Nuageux 3900 ft
Point de rosée 47 ° F
Humidité 85%
Précipitations 0.00 pouce
Profondeur de la couche neigeuse Non disponible.
UV 0.0 sur 12
Pollen Non disponible.
Qualité de l'air Non disponible.
Flu Activity Non disponible.
METAR LFPO 230630Z 26005KT 9999 BKN039 11/07 Q1025 NOSIG

More Conditions Fewer Conditions

10-Day Weather Forecast

Almanac

Astronomie

Oct. 23, 2014 Lever Coucher
Temps réel 08:22 CEST 18:46 CEST
Crépuscule civil 07:50 CEST 19:18 CEST
Crépuscule nautique 07:13 CEST 19:55 CEST
Crépuscule astronomique 06:37 CEST 20:31 CEST
Lune 07:44 CEST 18:39 CEST
Durée de lumière visible 11h 28m
Longueur du jour
10h 23m
Tomorrow will be 3m 22s shorter.
Lune descendante, 0% of the Moon is Illuminated
Aujourd'hui
Lune descendante
Oct 23
Nouveau
Oct 30
Premier quartier
Nov 6
Pleine lune
Nov 14
Dernier quartier

Les extrêmes de température d’hier

Country Highs Country Lows

Community

WunderPhotos

Upload Photos

1,764,194 Photos téléchargées !

Nearby

Qualité de l'air

Not available.

Épaisseur de neige

Not available.

Activité sismique

Ville Distance Mag. Time & Date
No recent earthquake activity has been reported nearby.
Minimum magnitude displayed is 2.5.

Températures des eaux côtières

Lieu Température
Aucun rapport de station

Stations météo à proximité